KVNY/VNY METAR and TAF weather

Enter ICAO airport designator
Station Type Date Time Source
KVNY METAR 2022/06/27 08:51 UTC NOAA

KVNY 270851Z AUTO 15004KT 10SM CLR 22/11 A3001 RMK AO2 SLP151 T02220106 58001


Station Type Date Time Source
KVNY Decoded METAR 2022/06/27 08:51 UTC NOAA

VAN NUYS AIRPORT, CA, United States (KVNY) 34-13N 118-29W 245M
Jun 27, 2022 - 04:51 AM EDT / 2022.06.27 0851 UTC
Wind: from the SSE (150 degrees) at 5 MPH (4 KT):0
Visibility: 10 mile(s):0
Sky conditions: clear
Temperature: 72.0 F (22.2 C)
Dew Point: 51.1 F (10.6 C)
Relative Humidity: 47%
Pressure (altimeter): 30.01 in. Hg (1016 hPa)
Pressure tendency: 0.00 inches (0.1 hPa) lower than three hours ago
ob: KVNY 270851Z AUTO 15004KT 10SM CLR 22/11 A3001 RMK AO2 SLP151 T02220106 58001
cycle: 9

Station Type Date Time Source
KVNY TAF 2022/06/27 06:36 UTC NOAA

TAF KVNY 270533Z 2706/2806 10006KT P6SM SKC
FM271000 VRB03KT P6SM SKC
FM272100 15008KT P6SM SKC
FM280200 10006KT P6SM SKC

Example: see airport list